createdAt,value
2018-11-03T00:00:26.978Z,4.90
2018-11-03T00:02:55.470Z,5.10
2018-11-03T00:05:23.953Z,5.17
2018-11-03T00:07:52.463Z,5.10
2018-11-03T00:10:24.349Z,4.90
2018-11-03T00:12:52.819Z,4.63
2018-11-03T00:15:21.321Z,5.10
2018-11-03T00:17:49.788Z,5.00
2018-11-03T00:20:18.279Z,4.80
2018-11-03T00:22:46.724Z,5.20
2018-11-03T00:25:15.218Z,5.90
2018-11-03T00:27:43.663Z,5.30
2018-11-03T00:30:13.213Z,5.07
2018-11-03T00:32:41.987Z,4.83
2018-11-03T00:35:10.684Z,5.10
2018-11-03T00:37:39.198Z,5.33
2018-11-03T00:40:10.004Z,5.40
2018-11-03T00:42:38.639Z,4.80
2018-11-03T00:45:08.231Z,5.17
2018-11-03T00:47:36.932Z,4.83
2018-11-03T00:50:06.866Z,4.63
2018-11-03T00:52:35.560Z,4.60
2018-11-03T00:55:04.956Z,4.90
2018-11-03T00:57:33.639Z,4.47
2018-11-03T01:00:02.433Z,4.80
2018-11-03T01:02:31.148Z,4.40
2018-11-03T01:04:59.872Z,4.27
2018-11-03T01:07:29.053Z,4.10
2018-11-03T01:09:57.774Z,4.43
2018-11-03T01:12:26.476Z,4.53
2018-11-03T01:14:55.124Z,4.60
2018-11-03T01:17:23.765Z,4.77
2018-11-03T01:19:52.433Z,4.83
2018-11-03T01:22:21.143Z,5.40
2018-11-03T01:24:49.848Z,5.77
2018-11-03T01:27:18.613Z,5.17
2018-11-03T01:29:47.449Z,5.53
2018-11-03T01:32:16.137Z,5.20
2018-11-03T01:34:44.807Z,5.53
2018-11-03T01:37:13.517Z,5.73
2018-11-03T01:39:42.258Z,5.93
2018-11-03T01:42:10.976Z,5.63
2018-11-03T01:44:39.643Z,6.07
2018-11-03T01:47:08.368Z,5.70
2018-11-03T01:49:37.058Z,5.87
2018-11-03T01:52:06.283Z,6.07
2018-11-03T01:54:35.004Z,5.77
2018-11-03T01:57:03.740Z,6.27
2018-11-03T01:59:32.412Z,5.57
2018-11-03T02:02:01.044Z,5.60
2018-11-03T02:04:29.977Z,5.50
2018-11-03T02:06:58.620Z,5.37
2018-11-03T02:09:27.366Z,5.33
2018-11-03T02:11:56.041Z,5.40
2018-11-03T02:14:25.266Z,5.40
2018-11-03T02:16:54.100Z,5.50
2018-11-03T02:19:23.086Z,6.23
2018-11-03T02:21:51.911Z,6.20
2018-11-03T02:24:20.530Z,6.27
2018-11-03T02:26:49.360Z,6.83
2018-11-03T02:29:18.374Z,7.13
2018-11-03T02:31:47.072Z,6.87
2018-11-03T02:34:16.157Z,7.30
2018-11-03T02:36:44.827Z,7.17
2018-11-03T02:39:13.564Z,7.27
2018-11-03T02:41:42.216Z,6.07
2018-11-03T02:44:11.441Z,5.60
2018-11-03T02:46:40.141Z,6.17
2018-11-03T02:49:10.432Z,6.47
2018-11-03T02:51:39.112Z,6.00
2018-11-03T02:54:07.774Z,6.53
2018-11-03T02:56:36.481Z,6.60
2018-11-03T02:59:05.149Z,6.40
2018-11-03T03:01:33.917Z,6.57
2018-11-03T03:04:02.948Z,6.67
2018-11-03T03:06:31.636Z,6.40
2018-11-03T03:09:00.246Z,5.83
2018-11-03T03:11:35.448Z,7.07
2018-11-03T03:14:04.169Z,6.10
2018-11-03T03:16:32.865Z,5.97
2018-11-03T03:19:01.685Z,6.10
2018-11-03T03:21:30.399Z,5.43
2018-11-03T03:23:59.074Z,5.77
2018-11-03T03:26:27.824Z,5.67
2018-11-03T03:28:56.552Z,6.03
2018-11-03T03:31:25.181Z,6.10
2018-11-03T03:33:54.719Z,6.07
2018-11-03T03:36:23.442Z,6.03
2018-11-03T03:38:52.156Z,6.00
2018-11-03T03:41:20.870Z,5.80
2018-11-03T03:43:49.563Z,5.83
2018-11-03T03:46:18.238Z,6.00
2018-11-03T03:48:46.936Z,6.57
2018-11-03T03:51:15.998Z,6.90
2018-11-03T03:53:44.685Z,7.10
2018-11-03T03:56:13.372Z,7.13
2018-11-03T03:58:42.624Z,7.70
2018-11-03T04:01:11.317Z,6.97
2018-11-03T04:03:40.052Z,6.40
2018-11-03T04:06:08.901Z,6.43
2018-11-03T04:08:37.561Z,6.40
2018-11-03T04:11:06.258Z,6.80
2018-11-03T04:13:35.138Z,6.90
2018-11-03T04:16:03.800Z,6.63
2018-11-03T04:18:32.460Z,6.97
2018-11-03T04:21:01.101Z,5.77
2018-11-03T04:23:29.736Z,6.30
2018-11-03T04:25:58.477Z,6.47
2018-11-03T04:28:27.136Z,6.13
2018-11-03T04:30:55.811Z,7.03
2018-11-03T04:33:25.269Z,6.97
2018-11-03T04:35:54.280Z,7.00
2018-11-03T04:38:22.960Z,6.67
2018-11-03T04:40:51.962Z,6.77
2018-11-03T04:43:21.468Z,7.03
2018-11-03T04:45:50.152Z,7.20
2018-11-03T04:48:18.725Z,6.73
2018-11-03T04:50:47.431Z,6.80
2018-11-03T04:53:16.203Z,7.17
2018-11-03T04:55:44.864Z,7.30
2018-11-03T04:58:13.486Z,7.33
2018-11-03T05:00:42.120Z,7.67
2018-11-03T05:03:10.749Z,7.50
2018-11-03T05:05:39.556Z,7.60
2018-11-03T05:08:08.203Z,8.10
2018-11-03T05:10:37.191Z,7.53
2018-11-03T05:13:06.384Z,8.10
2018-11-03T05:15:35.012Z,7.73
2018-11-03T05:18:03.834Z,7.67
2018-11-03T05:20:32.476Z,7.57
2018-11-03T05:23:01.378Z,8.43
2018-11-03T05:25:30.267Z,8.23
2018-11-03T05:27:58.985Z,7.23
2018-11-03T05:30:27.786Z,6.97
2018-11-03T05:32:56.697Z,7.30
2018-11-03T05:35:25.332Z,6.87
2018-11-03T05:37:53.970Z,7.30
2018-11-03T05:40:22.593Z,7.63
2018-11-03T05:42:51.410Z,7.40
2018-11-03T05:45:20.034Z,7.20
2018-11-03T05:47:48.708Z,6.90
2018-11-03T05:50:17.453Z,7.53
2018-11-03T05:52:46.108Z,6.97
2018-11-03T05:55:14.800Z,6.40
2018-11-03T05:57:43.728Z,6.60
2018-11-03T06:00:12.390Z,6.63
2018-11-03T06:02:41.096Z,6.57
2018-11-03T06:05:09.794Z,7.10
2018-11-03T06:07:38.603Z,6.43
2018-11-03T06:10:08.917Z,6.60
2018-11-03T06:12:37.997Z,6.53
2018-11-03T06:15:07.328Z,7.60
2018-11-03T06:17:35.965Z,6.93
2018-11-03T06:20:04.652Z,7.43
2018-11-03T06:22:33.362Z,7.83
2018-11-03T06:25:02.032Z,7.67
2018-11-03T06:27:30.857Z,7.33
2018-11-03T06:29:59.868Z,6.40
2018-11-03T06:32:28.825Z,7.00
2018-11-03T06:34:57.484Z,8.07
2018-11-03T06:37:26.286Z,6.60
2018-11-03T06:39:54.936Z,6.67
2018-11-03T06:42:23.764Z,7.97
2018-11-03T06:44:52.526Z,8.20
2018-11-03T06:47:22.234Z,7.77
2018-11-03T06:49:54.509Z,7.60
2018-11-03T06:52:23.377Z,7.80
2018-11-03T06:54:52.268Z,7.87
2018-11-03T06:57:20.920Z,7.67
2018-11-03T06:59:49.503Z,7.53
2018-11-03T07:02:18.378Z,7.90
2018-11-03T07:04:47.306Z,9.07
2018-11-03T07:07:16.065Z,9.10
2018-11-03T07:09:44.717Z,8.33
2018-11-03T07:12:13.492Z,7.93
2018-11-03T07:14:42.073Z,8.50
2018-11-03T07:17:10.766Z,8.70
2018-11-03T07:19:39.833Z,8.13
2018-11-03T07:22:08.688Z,8.43
2018-11-03T07:24:37.327Z,8.30
2018-11-03T07:27:06.257Z,7.87
2018-11-03T07:29:35.167Z,8.20
2018-11-03T07:32:04.076Z,8.60
2018-11-03T07:34:32.866Z,8.70
2018-11-03T07:37:01.614Z,9.60
2018-11-03T07:39:30.568Z,7.57
2018-11-03T07:41:59.787Z,8.63
2018-11-03T07:44:28.460Z,8.47
2018-11-03T07:46:57.199Z,8.43
2018-11-03T07:49:26.272Z,8.33
2018-11-03T07:52:00.633Z,8.70
2018-11-03T07:54:29.369Z,9.27
2018-11-03T07:56:58.648Z,8.73
2018-11-03T07:59:27.313Z,8.80
2018-11-03T08:01:55.923Z,8.70
2018-11-03T08:04:24.596Z,9.60
2018-11-03T08:06:53.259Z,8.53
2018-11-03T08:09:21.923Z,9.47
2018-11-03T08:11:50.680Z,9.17
2018-11-03T08:14:19.323Z,9.10
2018-11-03T08:16:48.010Z,9.23
2018-11-03T08:19:16.658Z,10.33
2018-11-03T08:21:45.380Z,8.63
2018-11-03T08:24:14.388Z,9.10
2018-11-03T08:26:43.006Z,8.80
2018-11-03T08:29:11.688Z,8.63
2018-11-03T08:31:40.433Z,8.53
2018-11-03T08:34:09.115Z,8.13
2018-11-03T08:36:37.753Z,8.27
2018-11-03T08:39:08.238Z,8.80
2018-11-03T08:41:37.033Z,8.40
2018-11-03T08:44:05.859Z,9.17
2018-11-03T08:46:34.531Z,8.87
2018-11-03T08:49:03.121Z,8.83
2018-11-03T08:51:31.832Z,9.63
2018-11-03T08:54:00.500Z,9.67
2018-11-03T08:56:29.568Z,9.40
2018-11-03T08:58:58.201Z,8.80
2018-11-03T09:01:26.910Z,8.83
2018-11-03T09:03:59.345Z,9.00
2018-11-03T09:06:29.066Z,8.77
2018-11-03T09:08:57.760Z,9.97
2018-11-03T09:11:26.417Z,10.30
2018-11-03T09:13:55.173Z,8.90
2018-11-03T09:16:23.897Z,8.07
2018-11-03T09:18:52.931Z,8.20
2018-11-03T09:21:21.588Z,8.10
2018-11-03T09:23:50.278Z,7.47
2018-11-03T09:26:18.940Z,8.17
2018-11-03T09:28:49.438Z,8.03
2018-11-03T09:31:18.080Z,8.23
2018-11-03T09:33:46.925Z,8.60
2018-11-03T09:36:16.245Z,8.70
2018-11-03T09:38:46.175Z,7.63
2018-11-03T09:41:15.736Z,7.43
2018-11-03T09:43:44.685Z,7.57
2018-11-03T09:46:13.333Z,7.20
2018-11-03T09:48:42.331Z,7.33
2018-11-03T09:51:11.066Z,8.10
2018-11-03T09:53:39.756Z,7.47
2018-11-03T09:56:10.508Z,7.80
2018-11-03T09:58:39.239Z,7.23
2018-11-03T10:01:08.311Z,7.33
2018-11-03T10:03:37.742Z,7.00
2018-11-03T10:06:06.707Z,7.20
2018-11-03T10:08:35.396Z,7.13
2018-11-03T10:11:07.688Z,8.00
2018-11-03T10:13:36.360Z,7.47
2018-11-03T10:16:05.573Z,7.10
2018-11-03T10:18:36.769Z,7.63
2018-11-03T10:21:05.851Z,7.50
2018-11-03T10:23:35.105Z,7.53
2018-11-03T10:26:03.869Z,7.20
2018-11-03T10:28:32.541Z,7.77
2018-11-03T10:31:01.157Z,6.97
2018-11-03T10:33:30.061Z,7.30
2018-11-03T10:35:58.884Z,6.97
2018-11-03T10:38:27.605Z,6.97
2018-11-03T10:40:57.205Z,6.77
2018-11-03T10:43:30.742Z,6.53
2018-11-03T10:45:59.397Z,6.33
2018-11-03T10:48:28.058Z,6.63
2018-11-03T10:50:56.716Z,7.00
2018-11-03T10:53:25.459Z,6.70
2018-11-03T10:55:54.113Z,6.43
2018-11-03T10:58:22.788Z,6.83
2018-11-03T11:00:56.690Z,6.00
2018-11-03T11:03:30.622Z,6.50
2018-11-03T11:06:15.953Z,6.63
2018-11-03T11:08:49.903Z,6.30
2018-11-03T11:11:23.699Z,6.47
2018-11-03T11:13:52.416Z,6.57
2018-11-03T11:16:21.361Z,6.27
2018-11-03T11:18:50.046Z,6.43
2018-11-03T11:21:18.795Z,6.30
2018-11-03T11:23:47.722Z,6.47
2018-11-03T11:26:16.488Z,6.77
2018-11-03T11:28:49.638Z,5.97
2018-11-03T11:31:18.437Z,6.50
2018-11-03T11:33:47.258Z,6.83
2018-11-03T11:36:19.770Z,6.13
2018-11-03T11:38:48.489Z,6.67
2018-11-03T11:41:17.308Z,6.23
2018-11-03T11:43:48.959Z,6.30
2018-11-03T11:46:17.845Z,6.10
2018-11-03T11:48:46.548Z,5.93
2018-11-03T11:51:15.529Z,5.60
2018-11-03T11:53:44.168Z,5.80
2018-11-03T11:56:12.920Z,6.20
2018-11-03T11:58:41.806Z,6.17
2018-11-03T12:01:10.479Z,5.90
2018-11-03T12:03:39.636Z,6.13
2018-11-03T12:06:08.403Z,6.40
2018-11-03T12:08:37.273Z,6.57
2018-11-03T12:11:06.470Z,5.97
2018-11-03T12:13:35.173Z,6.00
2018-11-03T12:16:04.224Z,6.30
2018-11-03T12:18:32.796Z,6.07
2018-11-03T12:21:02.722Z,6.10
2018-11-03T12:23:31.645Z,6.53
2018-11-03T12:26:00.289Z,6.20
2018-11-03T12:28:29.113Z,5.70
2018-11-03T12:30:57.987Z,6.07
2018-11-03T12:33:26.855Z,5.83
2018-11-03T12:35:55.846Z,6.10
2018-11-03T12:38:24.517Z,6.13
2018-11-03T12:40:53.335Z,5.47
2018-11-03T12:43:21.937Z,5.83
2018-11-03T12:45:50.629Z,5.90
2018-11-03T12:48:19.467Z,5.50
2018-11-03T12:50:48.096Z,6.00
2018-11-03T12:53:16.965Z,6.30
2018-11-03T12:55:45.655Z,5.87
2018-11-03T12:58:17.329Z,6.00
2018-11-03T13:00:47.320Z,6.00
2018-11-03T13:03:16.146Z,5.77
2018-11-03T13:05:44.830Z,6.20
2018-11-03T13:08:17.114Z,5.23
2018-11-03T13:10:45.780Z,5.63
2018-11-03T13:13:14.743Z,6.03
2018-11-03T13:15:43.516Z,5.47
2018-11-03T13:18:12.195Z,5.63
2018-11-03T13:20:40.887Z,5.67
2018-11-03T13:23:10.511Z,5.30
2018-11-03T13:25:39.757Z,6.00
2018-11-03T13:28:09.949Z,5.17
2018-11-03T13:30:38.607Z,5.70
2018-11-03T13:33:07.288Z,5.70
2018-11-03T13:35:35.912Z,5.60
2018-11-03T13:38:04.969Z,5.73
2018-11-03T13:40:33.784Z,5.10
2018-11-03T13:43:02.510Z,5.10
2018-11-03T13:45:31.162Z,5.47
2018-11-03T13:48:00.091Z,5.27
2018-11-03T13:50:28.730Z,5.50
2018-11-03T13:52:57.423Z,4.93
2018-11-03T13:55:26.154Z,5.63
2018-11-03T13:57:54.657Z,5.10
2018-11-03T14:00:26.687Z,5.47
2018-11-03T14:02:55.396Z,5.73
2018-11-03T14:05:25.204Z,5.07
2018-11-03T14:07:53.901Z,5.60
2018-11-03T14:10:22.607Z,5.80
2018-11-03T14:12:51.283Z,5.33
2018-11-03T14:15:25.647Z,5.80
2018-11-03T14:17:54.260Z,6.00
2018-11-03T14:20:22.900Z,6.13
2018-11-03T14:22:51.624Z,7.17
2018-11-03T14:25:20.378Z,11.93
2018-11-03T14:27:49.565Z,6.57
2018-11-03T14:30:19.605Z,5.50
2018-11-03T14:32:48.403Z,6.00
2018-11-03T14:35:18.999Z,6.07
2018-11-03T14:37:47.728Z,5.87
2018-11-03T14:40:17.183Z,6.30
2018-11-03T14:42:46.584Z,8.47
2018-11-03T14:45:16.501Z,5.93
2018-11-03T14:47:45.211Z,6.93
2018-11-03T14:50:13.886Z,7.17
2018-11-03T14:52:43.691Z,6.50
2018-11-03T14:55:13.102Z,6.47
2018-11-03T14:57:41.982Z,6.50
2018-11-03T15:00:13.303Z,7.33
2018-11-03T15:02:42.277Z,6.80
2018-11-03T15:05:11.929Z,6.10
2018-11-03T15:07:40.621Z,6.87
2018-11-03T15:10:10.303Z,7.33
2018-11-03T15:12:41.039Z,6.80
2018-11-03T15:15:13.035Z,7.07
2018-11-03T15:17:42.976Z,7.17
2018-11-03T15:20:12.688Z,5.90
2018-11-03T15:22:42.361Z,6.07
2018-11-03T15:25:11.346Z,6.40
2018-11-03T15:27:41.436Z,6.40
2018-11-03T15:30:13.071Z,5.90
2018-11-03T15:32:42.323Z,6.23
2018-11-03T15:35:12.187Z,5.83
2018-11-03T15:37:41.723Z,5.20
2018-11-03T15:40:12.321Z,5.07
2018-11-03T15:42:41.138Z,5.50
2018-11-03T15:45:17.402Z,5.40
2018-11-03T15:47:46.812Z,5.87
2018-11-03T15:50:16.425Z,5.90
2018-11-03T15:52:45.755Z,6.50
2018-11-03T15:55:14.671Z,6.30
2018-11-03T15:57:43.925Z,6.07
2018-11-03T16:00:16.503Z,7.10
2018-11-03T16:02:45.705Z,7.07
2018-11-03T16:05:14.680Z,7.77
2018-11-03T16:07:44.353Z,6.47
2018-11-03T16:10:13.941Z,6.07
2018-11-03T16:12:42.786Z,6.17
2018-11-03T16:15:12.560Z,5.90
2018-11-03T16:17:46.585Z,7.03
2018-11-03T16:22:59.730Z,7.30
2018-11-03T16:25:28.407Z,6.93
2018-11-03T16:27:57.450Z,8.30
2018-11-03T16:30:26.229Z,7.07
2018-11-03T16:32:55.026Z,10.43
2018-11-03T16:35:23.715Z,7.60
2018-11-03T16:40:42.731Z,7.80
2018-11-03T16:43:11.685Z,7.57
2018-11-03T16:45:40.863Z,8.33
2018-11-03T16:48:09.614Z,10.87
2018-11-03T16:50:38.831Z,8.40
2018-11-03T16:53:07.775Z,7.53
2018-11-03T16:55:36.880Z,7.70
2018-11-03T16:58:06.037Z,7.30
2018-11-03T17:00:34.697Z,6.67
2018-11-03T17:03:03.413Z,6.70
2018-11-03T17:05:32.064Z,6.63
2018-11-03T17:08:01.909Z,6.27
2018-11-03T17:10:32.486Z,6.57
2018-11-03T17:13:01.257Z,7.30
2018-11-03T17:15:30.083Z,6.73
2018-11-03T17:17:58.851Z,7.10
2018-11-03T17:20:28.302Z,6.77
2018-11-03T17:22:57.140Z,6.83
2018-11-03T17:25:25.890Z,6.43
2018-11-03T17:27:54.615Z,6.60
2018-11-03T17:30:23.321Z,8.00
2018-11-03T17:32:52.055Z,8.67
2018-11-03T17:35:20.694Z,8.90
2018-11-03T17:37:49.362Z,8.87
2018-11-03T17:40:18.127Z,11.07
2018-11-03T17:42:47.204Z,10.00
2018-11-03T17:45:15.939Z,9.87
2018-11-03T17:47:44.656Z,8.97
2018-11-03T17:50:13.974Z,8.43
2018-11-03T17:52:42.914Z,8.57
2018-11-03T17:55:11.720Z,8.03
2018-11-03T17:57:40.386Z,8.60
2018-11-03T18:00:12.671Z,8.67
2018-11-03T18:02:42.189Z,9.13
2018-11-03T18:05:10.755Z,8.77
2018-11-03T18:07:39.597Z,8.17
2018-11-03T18:10:09.889Z,7.93
2018-11-03T18:12:38.921Z,8.10
2018-11-03T18:15:08.481Z,8.50
2018-11-03T18:17:37.157Z,8.33
2018-11-03T18:20:07.209Z,8.20
2018-11-03T18:22:35.905Z,9.10
2018-11-03T18:25:05.300Z,8.67
2018-11-03T18:27:34.200Z,9.20
2018-11-03T18:30:03.115Z,8.83
2018-11-03T18:32:31.953Z,8.63
2018-11-03T18:35:00.815Z,9.73
2018-11-03T18:37:29.561Z,10.07
2018-11-03T18:39:58.478Z,8.60
2018-11-03T18:42:27.131Z,8.87
2018-11-03T18:44:55.838Z,8.60
2018-11-03T18:47:24.553Z,8.73
2018-11-03T18:49:53.316Z,7.93
2018-11-03T18:52:22.089Z,7.80
2018-11-03T18:54:50.726Z,7.90
2018-11-03T18:57:21.955Z,8.17
2018-11-03T18:59:50.679Z,9.17
2018-11-03T19:02:19.420Z,8.03
2018-11-03T19:04:48.098Z,8.03
2018-11-03T19:07:17.098Z,8.10
2018-11-03T19:09:45.749Z,8.00
2018-11-03T19:12:14.428Z,7.50
2018-11-03T19:14:43.446Z,8.30
2018-11-03T19:17:12.193Z,8.07
2018-11-03T19:19:40.902Z,8.43
2018-11-03T19:22:09.599Z,8.57
2018-11-03T19:24:38.261Z,9.13
2018-11-03T19:27:07.047Z,8.87
2018-11-03T19:29:35.783Z,8.53
2018-11-03T19:32:04.606Z,9.23
2018-11-03T19:34:33.293Z,9.03
2018-11-03T19:37:02.076Z,10.50
2018-11-03T19:39:31.102Z,12.63
2018-11-03T19:41:59.841Z,13.57
2018-11-03T19:44:28.501Z,16.30
2018-11-03T19:46:57.308Z,18.67
2018-11-03T19:49:26.058Z,22.13
2018-11-03T19:51:54.804Z,18.83
2018-11-03T19:54:23.454Z,17.60
2018-11-03T19:56:52.090Z,15.33
2018-11-03T19:59:20.846Z,16.40
2018-11-03T20:01:49.518Z,13.33
2018-11-03T20:04:18.262Z,11.53
2018-11-03T20:06:47.117Z,11.47
2018-11-03T20:09:15.845Z,10.93
2018-11-03T20:11:44.709Z,10.70
2018-11-03T20:14:13.537Z,11.03
2018-11-03T20:16:42.199Z,11.43
2018-11-03T20:19:11.010Z,11.73
2018-11-03T20:21:39.860Z,14.63
2018-11-03T20:24:08.789Z,14.07
2018-11-03T20:26:37.451Z,11.87
2018-11-03T20:29:06.141Z,10.90
2018-11-03T20:31:35.509Z,10.70
2018-11-03T20:34:04.292Z,11.00
2018-11-03T20:36:32.977Z,15.90
2018-11-03T20:39:01.688Z,14.30
2018-11-03T20:41:30.436Z,11.60
2018-11-03T20:43:59.218Z,11.43
2018-11-03T20:46:28.006Z,11.77
2018-11-03T20:48:56.721Z,13.60
2018-11-03T20:51:25.781Z,12.93
2018-11-03T20:53:54.583Z,11.13
2018-11-03T20:56:25.767Z,11.73
2018-11-03T20:58:54.538Z,10.00
2018-11-03T21:01:23.220Z,9.93
2018-11-03T21:03:52.883Z,9.33
2018-11-03T21:06:21.597Z,9.03
2018-11-03T21:08:50.398Z,9.00
2018-11-03T21:11:19.076Z,7.97
2018-11-03T21:13:47.785Z,8.43
2018-11-03T21:16:16.623Z,7.20
2018-11-03T21:18:45.348Z,7.60
2018-11-03T21:21:14.665Z,8.23
2018-11-03T21:23:43.472Z,10.13
2018-11-03T21:26:13.083Z,10.43
2018-11-03T21:28:42.068Z,9.83
2018-11-03T21:31:10.978Z,10.50
2018-11-03T21:33:39.785Z,10.00
2018-11-03T21:36:08.637Z,10.33
2018-11-03T21:38:37.813Z,9.63
2018-11-03T21:41:06.995Z,9.50
2018-11-03T21:43:35.842Z,8.73
2018-11-03T21:46:05.074Z,8.57
2018-11-03T21:48:35.377Z,8.47
2018-11-03T21:51:04.252Z,8.70
2018-11-03T21:53:32.933Z,9.50
2018-11-03T21:56:01.752Z,9.30
2018-11-03T21:58:30.337Z,9.90
2018-11-03T22:00:59.494Z,8.97
2018-11-03T22:03:29.510Z,9.70
2018-11-03T22:06:01.895Z,9.00
2018-11-03T22:08:32.850Z,9.80
2018-11-03T22:11:01.814Z,9.20
2018-11-03T22:13:30.615Z,9.27
2018-11-03T22:15:59.675Z,10.00
2018-11-03T22:18:28.790Z,10.83
2018-11-03T22:20:58.628Z,9.97
2018-11-03T22:23:27.689Z,10.13
2018-11-03T22:25:57.843Z,10.73
2018-11-03T22:28:29.181Z,9.93
2018-11-03T22:30:58.046Z,10.70
2018-11-03T22:33:27.001Z,10.50
2018-11-03T22:35:55.923Z,10.80
2018-11-03T22:38:24.598Z,10.03
2018-11-03T22:40:55.347Z,13.73
2018-11-03T22:43:24.162Z,10.13
2018-11-03T22:45:53.853Z,9.63
2018-11-03T22:48:23.881Z,9.73
2018-11-03T22:50:52.603Z,11.03
2018-11-03T22:53:23.642Z,10.60
2018-11-03T22:55:53.524Z,10.10
2018-11-03T22:58:22.201Z,10.90
2018-11-03T23:00:58.026Z,11.70
2018-11-03T23:03:27.939Z,11.33
2018-11-03T23:05:58.691Z,11.33
2018-11-03T23:08:27.414Z,11.27
2018-11-03T23:10:56.332Z,11.87
2018-11-03T23:13:25.186Z,11.37
2018-11-03T23:15:54.875Z,10.87
2018-11-03T23:18:27.034Z,10.53
2018-11-03T23:20:57.276Z,10.27
2018-11-03T23:23:26.147Z,9.80
2018-11-03T23:25:54.884Z,9.93
2018-11-03T23:28:23.643Z,10.60
2018-11-03T23:30:52.329Z,10.40
2018-11-03T23:33:21.082Z,10.90
2018-11-03T23:35:49.990Z,11.20
2018-11-03T23:38:19.092Z,10.57
2018-11-03T23:40:47.777Z,11.33
2018-11-03T23:43:16.909Z,10.43
2018-11-03T23:45:45.788Z,10.00
2018-11-03T23:48:15.113Z,9.73
2018-11-03T23:50:44.818Z,8.97
2018-11-03T23:53:13.537Z,10.13
2018-11-03T23:55:42.442Z,9.37
2018-11-03T23:58:11.417Z,8.80
